createdAt,value
2022-11-14T00:01:13.415Z,94577.91
2022-11-14T00:03:40.414Z,94569.25
2022-11-14T00:06:08.573Z,94576.81
2022-11-14T00:08:35.684Z,94576.13
2022-11-14T00:11:02.488Z,94578.47
2022-11-14T00:13:29.403Z,94577.38
2022-11-14T00:15:56.218Z,94568.88
2022-11-14T00:18:23.445Z,94575.31
2022-11-14T00:20:52.605Z,94574.63
2022-11-14T00:23:21.149Z,94564.22
2022-11-14T00:25:48.508Z,94564.91
2022-11-14T00:28:15.445Z,94573.28
2022-11-14T00:30:45.867Z,94569.16
2022-11-14T00:33:17.161Z,94548.31
2022-11-14T00:35:56.863Z,94547.50
2022-11-14T00:38:24.425Z,94557.94
2022-11-14T00:40:51.320Z,94542.72
2022-11-14T00:43:18.149Z,94546.81
2022-11-14T00:45:46.327Z,94546.41
2022-11-14T00:48:13.240Z,94543.94
2022-11-14T00:50:40.392Z,94544.63
2022-11-14T00:53:07.388Z,94536.38
2022-11-14T00:55:34.144Z,94531.88
2022-11-14T00:58:00.891Z,94528.31
2022-11-14T01:00:27.844Z,94517.06
2022-11-14T01:02:56.993Z,94531.59
2022-11-14T01:05:25.114Z,94513.09
2022-11-14T01:07:51.893Z,94516.78
2022-11-14T01:10:19.621Z,94518.03
2022-11-14T01:12:46.527Z,94521.19
2022-11-14T01:15:13.388Z,94512.13
2022-11-14T01:17:40.069Z,94511.16
2022-11-14T01:20:08.344Z,94518.44
2022-11-14T01:22:35.053Z,94511.28
2022-11-14T01:25:01.752Z,94514.59
2022-11-14T01:27:32.047Z,94511.59
2022-11-14T01:29:58.921Z,94491.97
2022-11-14T01:32:27.496Z,94516.81
2022-11-14T01:34:54.233Z,94514.88
2022-11-14T01:37:21.282Z,94513.63
2022-11-14T01:39:47.992Z,94507.63
2022-11-14T01:42:17.553Z,94500.06
2022-11-14T01:44:52.505Z,94521.31
2022-11-14T01:47:23.506Z,94524.88
2022-11-14T01:49:59.745Z,94525.00
2022-11-14T01:52:36.329Z,94520.91
2022-11-14T01:55:07.851Z,94526.13
2022-11-14T01:57:39.534Z,94514.75
2022-11-14T02:00:10.646Z,94518.44
2022-11-14T02:02:38.649Z,94500.47
2022-11-14T02:05:13.347Z,94505.00
2022-11-14T02:07:41.271Z,94493.34
2022-11-14T02:10:17.129Z,94504.03
2022-11-14T02:12:44.860Z,94505.56
2022-11-14T02:15:12.243Z,94513.34
2022-11-14T02:17:39.106Z,94509.13
2022-11-14T02:20:11.849Z,94512.28
2022-11-14T02:22:41.067Z,94520.38
2022-11-14T02:25:10.147Z,94499.25
2022-11-14T02:27:38.655Z,94494.03
2022-11-14T02:30:12.679Z,94490.75
2022-11-14T02:33:08.728Z,94483.19
2022-11-14T02:35:26.271Z,94493.47
2022-11-14T02:37:53.121Z,94491.13
2022-11-14T02:40:19.962Z,94492.81
2022-11-14T02:42:46.678Z,94483.63
2022-11-14T02:45:13.748Z,94479.22
2022-11-14T02:47:40.440Z,94484.97
2022-11-14T02:50:07.639Z,94484.69
2022-11-14T02:52:34.426Z,94492.13
2022-11-14T02:55:01.148Z,94494.84
2022-11-14T02:57:27.845Z,94488.53
2022-11-14T02:59:54.663Z,94505.00
2022-11-14T03:02:21.396Z,94500.88
2022-11-14T03:04:48.201Z,94503.91
2022-11-14T03:07:15.005Z,94494.44
2022-11-14T03:09:41.832Z,94503.34
2022-11-14T03:12:08.924Z,94509.50
2022-11-14T03:14:35.817Z,94501.56
2022-11-14T03:17:02.569Z,94505.97
2022-11-14T03:19:29.282Z,94519.81
2022-11-14T03:21:56.011Z,94516.53
2022-11-14T03:24:22.744Z,94532.84
2022-11-14T03:26:49.479Z,94511.59
2022-11-14T03:29:16.250Z,94516.94
2022-11-14T03:31:43.264Z,94506.91
2022-11-14T03:34:10.918Z,94489.50
2022-11-14T03:36:38.112Z,94507.31
2022-11-14T03:39:06.023Z,94509.81
2022-11-14T03:41:33.037Z,94502.94
2022-11-14T03:43:59.753Z,94503.59
2022-11-14T03:46:26.528Z,94501.44
2022-11-14T03:48:56.144Z,94508.25
2022-11-14T03:51:22.927Z,94499.38
2022-11-14T03:53:49.847Z,94491.25
2022-11-14T03:56:16.625Z,94490.69
2022-11-14T03:58:43.351Z,94480.28
2022-11-14T04:01:10.639Z,94493.47
2022-11-14T04:03:37.444Z,94486.84
2022-11-14T04:06:04.495Z,94497.44
2022-11-14T04:08:32.987Z,94492.63
2022-11-14T04:11:00.025Z,94478.22
2022-11-14T04:13:26.809Z,94480.00
2022-11-14T04:15:57.723Z,94487.94
2022-11-14T04:18:25.991Z,94489.03
2022-11-14T04:20:53.616Z,94496.56
2022-11-14T04:23:20.756Z,94492.47
2022-11-14T04:25:47.885Z,94483.28
2022-11-14T04:28:15.182Z,94487.94
2022-11-14T04:30:42.735Z,94479.19
2022-11-14T04:33:09.464Z,94480.81
2022-11-14T04:35:36.196Z,94477.09
2022-11-14T04:38:03.430Z,94475.84
2022-11-14T04:40:30.301Z,94466.38
2022-11-14T04:42:57.041Z,94466.25
2022-11-14T04:45:23.820Z,94463.91
2022-11-14T04:47:51.617Z,94472.81
2022-11-14T04:50:18.577Z,94483.63
2022-11-14T04:52:45.276Z,94459.91
2022-11-14T04:55:12.076Z,94464.31
2022-11-14T04:57:38.865Z,94459.66
2022-11-14T05:00:06.688Z,94460.16
2022-11-14T05:02:33.587Z,94436.78
2022-11-14T05:05:00.344Z,94456.88
2022-11-14T05:07:27.198Z,94421.94
2022-11-14T05:09:54.039Z,94443.44
2022-11-14T05:12:20.807Z,94427.38
2022-11-14T05:14:47.561Z,94428.06
2022-11-14T05:17:14.373Z,94463.97
2022-11-14T05:19:41.118Z,94437.09
2022-11-14T05:22:07.854Z,94442.31
2022-11-14T05:24:34.573Z,94425.88
2022-11-14T05:27:01.357Z,94428.59
2022-11-14T05:29:28.128Z,94441.06
2022-11-14T05:31:54.861Z,94418.41
2022-11-14T05:34:21.618Z,94418.72
2022-11-14T05:36:48.361Z,94421.59
2022-11-14T05:39:16.289Z,94464.88
2022-11-14T05:41:43.017Z,94452.13
2022-11-14T05:44:09.947Z,94466.78
2022-11-14T05:46:36.765Z,94439.53
2022-11-14T05:49:03.657Z,94443.91
2022-11-14T05:51:30.390Z,94440.63
2022-11-14T05:53:57.133Z,94440.63
2022-11-14T05:56:23.878Z,94430.19
2022-11-14T05:58:50.625Z,94468.03
2022-11-14T06:01:19.881Z,94430.72
2022-11-14T06:03:48.825Z,94451.16
2022-11-14T06:06:21.236Z,94446.09
2022-11-14T06:08:48.958Z,94452.63
2022-11-14T06:11:19.586Z,94437.03
2022-11-14T06:13:47.042Z,94427.84
2022-11-14T06:16:18.774Z,94415.59
2022-11-14T06:18:46.525Z,94413.81
2022-11-14T06:21:17.261Z,94428.59
2022-11-14T06:23:46.078Z,94444.94
2022-11-14T06:26:33.082Z,94419.75
2022-11-14T06:29:00.830Z,94438.06
2022-11-14T06:31:28.145Z,94428.78
2022-11-14T06:33:55.059Z,94420.00
2022-11-14T06:36:21.886Z,94461.66
2022-11-14T06:38:48.703Z,94455.63
2022-11-14T06:41:21.404Z,94432.63
2022-11-14T06:43:51.464Z,94450.69
2022-11-14T06:46:21.071Z,94428.22
2022-11-14T06:48:49.393Z,94438.38
2022-11-14T06:51:17.868Z,94455.47
2022-11-14T06:53:44.774Z,94466.88
2022-11-14T06:56:14.687Z,94443.97
2022-11-14T06:58:48.209Z,94461.38
2022-11-14T07:01:18.957Z,94443.28
2022-11-14T07:03:46.608Z,94477.31
2022-11-14T07:06:17.299Z,94469.94
2022-11-14T07:08:44.368Z,94469.88
2022-11-14T07:11:23.098Z,94485.81
2022-11-14T07:13:55.281Z,94464.13
2022-11-14T07:16:26.297Z,94472.34
2022-11-14T07:18:53.234Z,94469.72
2022-11-14T07:21:19.986Z,94477.25
2022-11-14T07:23:46.752Z,94505.72
2022-11-14T07:26:13.713Z,94485.81
2022-11-14T07:28:42.825Z,94491.41
2022-11-14T07:31:20.060Z,94506.38
2022-11-14T07:33:47.560Z,94510.34
2022-11-14T07:36:15.753Z,94517.88
2022-11-14T07:38:43.089Z,94486.50
2022-11-14T07:41:12.862Z,94488.69
2022-11-14T07:43:40.220Z,94506.94
2022-11-14T07:46:11.848Z,94484.81
2022-11-14T07:48:39.145Z,94491.53
2022-11-14T07:51:10.337Z,94494.97
2022-11-14T07:53:37.110Z,94510.97
2022-11-14T07:56:11.359Z,94526.34
2022-11-14T07:58:40.171Z,94496.06
2022-11-14T08:01:10.104Z,94500.34
2022-11-14T08:03:40.876Z,94504.72
2022-11-14T08:06:14.517Z,94535.16
2022-11-14T08:08:41.337Z,94507.06
2022-11-14T08:11:08.630Z,94529.53
2022-11-14T08:13:35.510Z,94511.03
2022-11-14T08:16:13.446Z,94518.28
2022-11-14T08:18:41.590Z,94499.09
2022-11-14T08:21:08.669Z,94508.41
2022-11-14T08:23:35.610Z,94507.44
2022-11-14T08:26:02.386Z,94534.34
2022-11-14T08:28:29.436Z,94527.19
2022-11-14T08:31:04.461Z,94515.13
2022-11-14T08:33:31.787Z,94515.13
2022-11-14T08:36:07.187Z,94530.16
2022-11-14T08:38:34.978Z,94535.66
2022-11-14T08:41:02.342Z,94508.50
2022-11-14T08:43:31.063Z,94516.75
2022-11-14T08:46:04.929Z,94544.41
2022-11-14T08:48:33.568Z,94537.50
2022-11-14T08:51:06.600Z,94515.84
2022-11-14T08:53:34.634Z,94549.16
2022-11-14T08:56:01.519Z,94521.16
2022-11-14T08:58:31.401Z,94545.38
2022-11-14T09:01:04.267Z,94524.69
2022-11-14T09:03:31.169Z,94521.03
2022-11-14T09:05:58.370Z,94526.72
2022-11-14T09:08:25.672Z,94523.44
2022-11-14T09:10:52.571Z,94539.00
2022-11-14T09:13:19.793Z,94537.88
2022-11-14T09:15:46.738Z,94525.97
2022-11-14T09:18:13.977Z,94559.25
2022-11-14T09:20:41.215Z,94539.16
2022-11-14T09:23:09.464Z,94549.88
2022-11-14T09:25:37.414Z,94558.50
2022-11-14T09:28:06.937Z,94548.19
2022-11-14T09:30:35.136Z,94529.81
2022-11-14T09:33:10.060Z,94548.03
2022-11-14T09:35:38.464Z,94537.25
2022-11-14T09:38:09.133Z,94563.63
2022-11-14T09:41:09.370Z,94568.97
2022-11-14T09:44:20.357Z,94541.16
2022-11-14T09:46:59.829Z,94570.47
2022-11-14T09:49:35.725Z,94574.94
2022-11-14T09:52:49.325Z,94576.63
2022-11-14T09:55:32.321Z,94548.31
2022-11-14T09:58:03.850Z,94561.34
2022-11-14T10:00:52.189Z,94559.53
2022-11-14T10:04:09.702Z,94570.72
2022-11-14T10:07:10.982Z,94567.88
2022-11-14T10:09:58.701Z,94571.84
2022-11-14T10:12:44.782Z,94557.41
2022-11-14T10:15:37.617Z,94546.22
2022-11-14T10:18:33.425Z,94560.03
2022-11-14T10:21:44.889Z,94537.09
2022-11-14T10:24:50.762Z,94563.38
2022-11-14T10:27:31.349Z,94571.63
2022-11-14T10:30:14.958Z,94531.53
2022-11-14T10:33:29.681Z,94563.28
2022-11-14T10:36:12.472Z,94544.09
2022-11-14T10:38:50.725Z,94552.66
2022-11-14T10:41:41.846Z,94536.28
2022-11-14T10:44:11.694Z,94546.88
2022-11-14T10:46:42.481Z,94544.13
2022-11-14T10:49:25.046Z,94524.31
2022-11-14T10:51:57.799Z,94550.28
2022-11-14T10:54:36.866Z,94557.84
2022-11-14T10:57:03.621Z,94520.09
2022-11-14T10:59:30.638Z,94536.53
2022-11-14T11:01:58.797Z,94531.81
2022-11-14T11:04:33.181Z,94537.94
2022-11-14T11:07:08.967Z,94543.84
2022-11-14T11:09:57.381Z,94538.25
2022-11-14T11:12:48.536Z,94534.38
2022-11-14T11:15:24.028Z,94512.69
2022-11-14T11:17:57.626Z,94536.09
2022-11-14T11:20:45.321Z,94525.72
2022-11-14T11:23:12.062Z,94534.13
2022-11-14T11:25:40.382Z,94523.78
2022-11-14T11:28:22.137Z,94529.03
2022-11-14T11:31:02.032Z,94509.84
2022-11-14T11:33:32.387Z,94544.66
2022-11-14T11:36:18.920Z,94541.38
2022-11-14T11:38:47.566Z,94518.91
2022-11-14T11:44:20.148Z,94520.75
2022-11-14T11:47:01.111Z,94520.75
2022-11-14T11:49:30.589Z,94532.25
2022-11-14T11:52:10.172Z,94501.75
2022-11-14T11:55:08.920Z,94530.66
2022-11-14T11:58:05.944Z,94506.34
2022-11-14T12:00:33.408Z,94481.91
2022-11-14T12:03:00.753Z,94491.44
2022-11-14T12:05:48.833Z,94522.91
2022-11-14T12:08:49.726Z,94521.13
2022-11-14T12:11:22.938Z,94519.16
2022-11-14T12:14:26.415Z,94512.56
2022-11-14T12:16:55.636Z,94508.81
2022-11-14T12:19:56.207Z,94505.69
2022-11-14T12:23:00.330Z,94520.28
2022-11-14T12:25:42.624Z,94517.19
2022-11-14T12:28:24.342Z,94516.53
2022-11-14T12:30:58.016Z,94475.34
2022-11-14T12:33:33.404Z,94504.34
2022-11-14T12:36:05.158Z,94502.06
2022-11-14T12:38:45.594Z,94496.47
2022-11-14T12:41:25.844Z,94495.16
2022-11-14T12:43:52.963Z,94492.88
2022-11-14T12:46:19.740Z,94460.25
2022-11-14T12:48:46.902Z,94473.53
2022-11-14T12:51:25.672Z,94508.59
2022-11-14T12:53:54.842Z,94511.00
2022-11-14T12:56:54.203Z,94508.88
2022-11-14T12:59:29.641Z,94521.31
2022-11-14T13:02:28.081Z,94482.22
2022-11-14T13:05:24.393Z,94470.38
2022-11-14T13:08:19.886Z,94500.44
2022-11-14T13:10:46.610Z,94476.44
2022-11-14T13:13:35.100Z,94497.97
2022-11-14T13:16:23.083Z,94495.34
2022-11-14T13:19:30.097Z,94499.91
2022-11-14T13:22:11.929Z,94507.47
2022-11-14T13:24:59.664Z,94497.09
2022-11-14T13:28:00.655Z,94482.84
2022-11-14T13:31:16.513Z,94480.25
2022-11-14T13:33:45.526Z,94486.44
2022-11-14T13:37:04.814Z,94477.31
2022-11-14T13:40:11.781Z,94493.41
2022-11-14T13:43:04.616Z,94491.91
2022-11-14T13:46:05.317Z,94490.28
2022-11-14T13:49:11.710Z,94490.47
2022-11-14T13:51:43.916Z,94475.56
2022-11-14T13:54:17.837Z,94475.06
2022-11-14T13:57:13.945Z,94452.13
2022-11-14T13:59:49.460Z,94489.81
2022-11-14T14:03:05.609Z,94490.00
2022-11-14T14:05:54.286Z,94481.81
2022-11-14T14:09:01.498Z,94492.00
2022-11-14T14:12:00.790Z,94496.75
2022-11-14T14:14:49.392Z,94470.69
2022-11-14T14:17:30.376Z,94502.16
2022-11-14T14:20:32.789Z,94494.81
2022-11-14T14:23:23.552Z,94495.28
2022-11-14T14:26:05.371Z,94495.63
2022-11-14T14:28:43.686Z,94493.16
2022-11-14T14:31:11.784Z,94491.50
2022-11-14T14:33:44.339Z,94488.56
2022-11-14T14:36:25.678Z,94466.22
2022-11-14T14:39:17.797Z,94490.78
2022-11-14T14:41:45.013Z,94489.16
2022-11-14T14:44:32.265Z,94494.72
2022-11-14T14:46:59.717Z,94465.22
2022-11-14T14:49:35.522Z,94468.03
2022-11-14T14:52:02.265Z,94473.09
2022-11-14T14:54:29.809Z,94462.59
2022-11-14T14:57:00.515Z,94465.38
2022-11-14T14:59:31.178Z,94475.09
2022-11-14T15:01:58.496Z,94486.59
2022-11-14T15:04:28.893Z,94471.47
2022-11-14T15:06:57.611Z,94488.06
2022-11-14T15:09:32.663Z,94501.34
2022-11-14T15:12:01.509Z,94504.81
2022-11-14T15:14:32.570Z,94511.88
2022-11-14T15:17:00.501Z,94506.63
2022-11-14T15:19:40.773Z,94504.97
2022-11-14T15:22:16.466Z,94509.41
2022-11-14T15:24:43.596Z,94505.63
2022-11-14T15:27:18.419Z,94501.88
2022-11-14T15:29:51.890Z,94499.75
2022-11-14T15:32:24.401Z,94500.41
2022-11-14T15:35:22.486Z,94504.84
2022-11-14T15:38:42.529Z,94504.34
2022-11-14T15:41:23.320Z,94498.63
2022-11-14T15:43:55.320Z,94496.16
2022-11-14T15:46:33.851Z,94497.16
2022-11-14T15:49:17.809Z,94499.28
2022-11-14T15:51:50.096Z,94504.56
2022-11-14T15:54:32.029Z,94504.56
2022-11-14T15:57:06.112Z,94509.78
2022-11-14T15:59:32.830Z,94504.41
2022-11-14T16:02:10.891Z,94505.22
2022-11-14T16:04:44.451Z,94504.41
2022-11-14T16:07:16.278Z,94511.44
2022-11-14T16:09:43.886Z,94505.69
2022-11-14T16:12:10.805Z,94498.47
2022-11-14T16:14:38.179Z,94499.78
2022-11-14T16:17:05.757Z,94512.75
2022-11-14T16:19:32.502Z,94504.34
2022-11-14T16:22:03.069Z,94510.25
2022-11-14T16:24:34.377Z,94518.13
2022-11-14T16:27:01.752Z,94509.59
2022-11-14T16:29:28.504Z,94515.81
2022-11-14T16:31:55.677Z,94536.47
2022-11-14T16:34:26.987Z,94530.88
2022-11-14T16:37:03.136Z,94540.03
2022-11-14T16:39:30.318Z,94539.06
2022-11-14T16:42:02.609Z,94547.72
2022-11-14T16:44:30.171Z,94544.88
2022-11-14T16:46:57.485Z,94547.31
2022-11-14T16:49:24.735Z,94536.75
2022-11-14T16:51:55.920Z,94544.25
2022-11-14T16:54:22.697Z,94556.03
2022-11-14T16:56:49.440Z,94537.59
2022-11-14T16:59:16.378Z,94551.66
2022-11-14T17:01:43.268Z,94543.16
2022-11-14T17:04:10.084Z,94548.84
2022-11-14T17:06:36.893Z,94547.38
2022-11-14T17:09:03.973Z,94540.59
2022-11-14T17:11:30.825Z,94542.88
2022-11-14T17:13:57.787Z,94554.00
2022-11-14T17:16:24.913Z,94538.25
2022-11-14T17:18:54.182Z,94551.00
2022-11-14T17:21:22.137Z,94537.06
2022-11-14T17:24:02.902Z,94545.19
2022-11-14T17:26:30.041Z,94534.63
2022-11-14T17:28:57.305Z,94527.22
2022-11-14T17:31:24.036Z,94526.91
2022-11-14T17:33:53.223Z,94536.94
2022-11-14T17:36:20.868Z,94538.50
2022-11-14T17:38:47.741Z,94536.84
2022-11-14T17:41:14.504Z,94538.06
2022-11-14T17:43:41.707Z,94541.88
2022-11-14T17:46:15.950Z,94549.72
2022-11-14T17:48:44.637Z,94549.66
2022-11-14T17:51:14.297Z,94552.97
2022-11-14T17:53:42.039Z,94550.81
2022-11-14T17:56:17.964Z,94554.16
2022-11-14T17:58:45.479Z,94546.38
2022-11-14T18:01:18.446Z,94555.13
2022-11-14T18:03:45.097Z,94549.53
2022-11-14T18:06:19.304Z,94553.09
2022-11-14T18:08:46.020Z,94554.22
2022-11-14T18:11:15.778Z,94547.53
2022-11-14T18:13:42.629Z,94530.69
2022-11-14T18:16:12.988Z,94552.06
2022-11-14T18:18:39.895Z,94546.31
2022-11-14T18:21:22.316Z,94551.69
2022-11-14T18:23:57.928Z,94548.41
2022-11-14T18:26:28.443Z,94551.84
2022-11-14T18:28:56.459Z,94546.38
2022-11-14T18:31:23.743Z,94545.84
2022-11-14T18:33:50.622Z,94554.38
2022-11-14T18:36:19.665Z,94558.19
2022-11-14T18:38:47.071Z,94554.22
2022-11-14T18:41:19.104Z,94554.69
2022-11-14T18:43:46.739Z,94555.09
2022-11-14T18:46:17.521Z,94559.06
2022-11-14T18:48:46.939Z,94562.94
2022-11-14T18:51:17.486Z,94543.44
2022-11-14T18:53:44.640Z,94552.81
2022-11-14T18:56:15.330Z,94555.03
2022-11-14T18:58:43.292Z,94562.19
2022-11-14T19:01:26.557Z,94547.09
2022-11-14T19:03:57.817Z,94548.63
2022-11-14T19:06:24.580Z,94553.19
2022-11-14T19:08:56.777Z,94535.94
2022-11-14T19:11:41.973Z,94544.72
2022-11-14T19:14:08.760Z,94530.88
2022-11-14T19:16:37.211Z,94522.81
2022-11-14T19:19:08.230Z,94535.97
2022-11-14T19:21:35.564Z,94519.81
2022-11-14T19:24:02.897Z,94529.69
2022-11-14T19:26:30.239Z,94523.69
2022-11-14T19:28:58.075Z,94542.69
2022-11-14T19:31:25.257Z,94539.84
2022-11-14T19:33:52.010Z,94546.84
2022-11-14T19:36:45.299Z,94537.22
2022-11-14T19:39:09.184Z,94532.31
2022-11-14T19:41:36.009Z,94526.19
2022-11-14T19:44:03.093Z,94534.34
2022-11-14T19:46:30.064Z,94542.31
2022-11-14T19:49:01.168Z,94538.34
2022-11-14T19:51:29.435Z,94544.91
2022-11-14T19:53:58.296Z,94545.19
2022-11-14T19:56:25.904Z,94540.66
2022-11-14T19:58:58.067Z,94540.94
2022-11-14T20:01:27.785Z,94538.88
2022-11-14T20:04:01.401Z,94532.81
2022-11-14T20:06:36.584Z,94530.59
2022-11-14T20:09:10.009Z,94546.84
2022-11-14T20:11:36.945Z,94537.53
2022-11-14T20:14:05.675Z,94544.25
2022-11-14T20:16:35.562Z,94527.31
2022-11-14T20:19:02.540Z,94541.50
2022-11-14T20:21:32.533Z,94543.13
2022-11-14T20:23:59.665Z,94555.50
2022-11-14T20:26:26.683Z,94537.91
2022-11-14T20:28:54.816Z,94543.66
2022-11-14T20:31:29.937Z,94546.72
2022-11-14T20:33:57.045Z,94539.00
2022-11-14T20:36:32.016Z,94542.16
2022-11-14T20:39:06.273Z,94547.91
2022-11-14T20:41:34.000Z,94539.38
2022-11-14T20:44:03.581Z,94544.63
2022-11-14T20:46:30.404Z,94541.63
2022-11-14T20:48:57.179Z,94547.66
2022-11-14T20:51:25.910Z,94530.91
2022-11-14T20:53:54.873Z,94561.41
2022-11-14T20:56:22.888Z,94549.31
2022-11-14T20:58:53.719Z,94555.34
2022-11-14T21:01:21.223Z,94546.84
2022-11-14T21:03:48.893Z,94547.53
2022-11-14T21:06:16.596Z,94556.72
2022-11-14T21:08:43.938Z,94561.84
2022-11-14T21:11:18.315Z,94557.44
2022-11-14T21:13:57.886Z,94553.69
2022-11-14T21:16:38.878Z,94547.28
2022-11-14T21:19:06.533Z,94549.34
2022-11-14T21:21:35.884Z,94552.34
2022-11-14T21:24:02.808Z,94545.75
2022-11-14T21:26:33.541Z,94547.00
2022-11-14T21:29:05.211Z,94537.53
2022-11-14T21:31:38.722Z,94540.03
2022-11-14T21:34:09.817Z,94541.13
2022-11-14T21:36:46.040Z,94533.16
2022-11-14T21:39:15.561Z,94536.75
2022-11-14T21:41:43.673Z,94537.03
2022-11-14T21:44:14.630Z,94540.63
2022-11-14T21:46:41.626Z,94520.81
2022-11-14T21:49:09.231Z,94525.22
2022-11-14T21:51:36.354Z,94537.03
2022-11-14T21:54:03.534Z,94537.03
2022-11-14T21:56:33.244Z,94535.66
2022-11-14T21:59:14.134Z,94522.19
2022-11-14T22:02:08.285Z,94530.19
2022-11-14T22:04:35.805Z,94528.66
2022-11-14T22:07:07.727Z,94536.09
2022-11-14T22:09:36.977Z,94527.41
2022-11-14T22:12:05.961Z,94529.63
2022-11-14T22:14:32.652Z,94524.13
2022-11-14T22:16:59.380Z,94518.41
2022-11-14T22:19:26.197Z,94516.88
2022-11-14T22:21:54.249Z,94525.69
2022-11-14T22:24:21.351Z,94527.97
2022-11-14T22:26:48.103Z,94522.94
2022-11-14T22:29:14.853Z,94518.94
2022-11-14T22:31:41.601Z,94516.88
2022-11-14T22:34:08.448Z,94513.47
2022-11-14T22:36:35.832Z,94524.72
2022-11-14T22:39:02.864Z,94512.41
2022-11-14T22:41:33.432Z,94527.75
2022-11-14T22:44:01.895Z,94536.00
2022-11-14T22:46:29.651Z,94517.63
2022-11-14T22:48:56.505Z,94526.50
2022-11-14T22:51:26.454Z,94516.22
2022-11-14T22:53:56.068Z,94525.13
2022-11-14T22:56:28.929Z,94520.59
2022-11-14T22:58:56.931Z,94529.00
2022-11-14T23:01:27.320Z,94520.22
2022-11-14T23:04:05.461Z,94523.66
2022-11-14T23:06:34.408Z,94519.38
2022-11-14T23:09:02.675Z,94521.16
2022-11-14T23:11:32.104Z,94510.47
2022-11-14T23:14:01.029Z,94508.81
2022-11-14T23:16:33.451Z,94509.63
2022-11-14T23:19:03.407Z,94509.50
2022-11-14T23:21:34.959Z,94507.88
2022-11-14T23:24:11.140Z,94495.78
2022-11-14T23:26:37.879Z,94511.56
2022-11-14T23:29:05.005Z,94487.28
2022-11-14T23:31:31.749Z,94497.44
2022-11-14T23:33:58.549Z,94508.25
2022-11-14T23:36:25.944Z,94483.03
2022-11-14T23:38:53.864Z,94495.25
2022-11-14T23:41:25.552Z,94490.19
2022-11-14T23:43:52.817Z,94497.31
2022-11-14T23:46:19.579Z,94496.09
2022-11-14T23:48:46.307Z,94494.16
2022-11-14T23:51:13.812Z,94489.50
2022-11-14T23:53:41.307Z,94480.31
2022-11-14T23:56:13.373Z,94484.00
2022-11-14T23:58:41.029Z,94478.41
